sensor_id;sensor_type;location;lat;lon;timestamp;pressure;altitude;pressure_sealevel;temperature;humidity
46199;BME280;31928;52.104;10.030;2024-01-11T00:01:33;102197.72;;;-2.88;45.61
46199;BME280;31928;52.104;10.030;2024-01-11T00:04:00;102199.56;;;-2.90;45.75
46199;BME280;31928;52.104;10.030;2024-01-11T00:06:27;102197.84;;;-2.91;45.55
46199;BME280;31928;52.104;10.030;2024-01-11T00:08:53;102202.19;;;-2.90;45.45
46199;BME280;31928;52.104;10.030;2024-01-11T00:11:20;102198.03;;;-2.94;45.59
46199;BME280;31928;52.104;10.030;2024-01-11T00:13:46;102184.16;;;-2.96;45.47
46199;BME280;31928;52.104;10.030;2024-01-11T00:16:13;102191.19;;;-2.97;45.71
46199;BME280;31928;52.104;10.030;2024-01-11T00:18:39;102197.34;;;-2.98;45.45
46199;BME280;31928;52.104;10.030;2024-01-11T00:21:06;102182.66;;;-3.00;45.51
46199;BME280;31928;52.104;10.030;2024-01-11T00:23:32;102183.56;;;-3.01;45.61
46199;BME280;31928;52.104;10.030;2024-01-11T00:25:59;102194.16;;;-3.02;45.73
46199;BME280;31928;52.104;10.030;2024-01-11T00:28:26;102192.53;;;-3.05;45.41
46199;BME280;31928;52.104;10.030;2024-01-11T00:30:52;102187.38;;;-3.06;45.46
46199;BME280;31928;52.104;10.030;2024-01-11T00:33:19;102189.13;;;-3.07;45.55
46199;BME280;31928;52.104;10.030;2024-01-11T00:35:46;102198.88;;;-3.09;45.73
46199;BME280;31928;52.104;10.030;2024-01-11T00:38:12;102201.66;;;-3.12;45.70
46199;BME280;31928;52.104;10.030;2024-01-11T00:40:39;102199.94;;;-3.13;45.49
46199;BME280;31928;52.104;10.030;2024-01-11T00:43:05;102194.78;;;-3.14;45.50
46199;BME280;31928;52.104;10.030;2024-01-11T00:45:32;102194.88;;;-3.16;45.56
46199;BME280;31928;52.104;10.030;2024-01-11T00:47:58;102195.78;;;-3.17;45.66
46199;BME280;31928;52.104;10.030;2024-01-11T00:50:25;102199.38;;;-3.18;45.55
46199;BME280;31928;52.104;10.030;2024-01-11T00:52:52;102201.22;;;-3.20;45.84
46199;BME280;31928;52.104;10.030;2024-01-11T00:55:19;102213.50;;;-3.20;45.65
46199;BME280;31928;52.104;10.030;2024-01-11T00:57:45;102208.34;;;-3.22;45.87
46199;BME280;31928;52.104;10.030;2024-01-11T01:00:12;102200.53;;;-3.23;45.69
46199;BME280;31928;52.104;10.030;2024-01-11T01:02:40;102204.94;;;-3.24;45.58
46199;BME280;31928;52.104;10.030;2024-01-11T01:05:07;102189.38;;;-3.27;45.85
46199;BME280;31928;52.104;10.030;2024-01-11T01:07:34;102184.97;;;-3.26;45.84
46199;BME280;31928;52.104;10.030;2024-01-11T01:10:00;102180.72;;;-3.29;45.63
46199;BME280;31928;52.104;10.030;2024-01-11T01:12:28;102170.41;;;-3.32;45.93
46199;BME280;31928;52.104;10.030;2024-01-11T01:14:55;102172.25;;;-3.34;45.66
46199;BME280;31928;52.104;10.030;2024-01-11T01:17:22;102188.91;;;-3.35;45.82
46199;BME280;31928;52.104;10.030;2024-01-11T01:19:48;102190.00;;;-3.39;45.78
46199;BME280;31928;52.104;10.030;2024-01-11T01:22:15;102179.50;;;-3.39;45.89
46199;BME280;31928;52.104;10.030;2024-01-11T01:24:44;102184.75;;;-3.39;46.05
46199;BME280;31928;52.104;10.030;2024-01-11T01:27:11;102188.34;;;-3.40;45.88
46199;BME280;31928;52.104;10.030;2024-01-11T01:29:37;102185.84;;;-3.43;45.93
46199;BME280;31928;52.104;10.030;2024-01-11T01:32:04;102192.78;;;-3.42;46.19
46199;BME280;31928;52.104;10.030;2024-01-11T01:34:31;102192.88;;;-3.43;45.76
46199;BME280;31928;52.104;10.030;2024-01-11T01:36:57;102186.81;;;-3.44;46.03
46199;BME280;31928;52.104;10.030;2024-01-11T01:39:24;102184.22;;;-3.45;45.89
46199;BME280;31928;52.104;10.030;2024-01-11T01:41:50;102185.25;;;-3.48;45.91
46199;BME280;31928;52.104;10.030;2024-01-11T01:44:17;102184.41;;;-3.48;45.89
46199;BME280;31928;52.104;10.030;2024-01-11T01:46:44;102178.34;;;-3.49;45.80
46199;BME280;31928;52.104;10.030;2024-01-11T01:49:11;102181.88;;;-3.50;45.88
46199;BME280;31928;52.104;10.030;2024-01-11T01:51:38;102172.31;;;-3.51;45.83
46199;BME280;31928;52.104;10.030;2024-01-11T01:54:05;102163.63;;;-3.51;46.13
46199;BME280;31928;52.104;10.030;2024-01-11T01:56:31;102172.41;;;-3.52;45.84
46199;BME280;31928;52.104;10.030;2024-01-11T01:58:58;102168.06;;;-3.53;46.19
46199;BME280;31928;52.104;10.030;2024-01-11T02:01:25;102183.78;;;-3.53;46.12
46199;BME280;31928;52.104;10.030;2024-01-11T02:03:54;102190.81;;;-3.54;46.16
46199;BME280;31928;52.104;10.030;2024-01-11T02:06:21;102185.59;;;-3.54;46.05
46199;BME280;31928;52.104;10.030;2024-01-11T02:08:49;102188.94;;;-3.52;46.28
46199;BME280;31928;52.104;10.030;2024-01-11T02:11:17;102185.59;;;-3.54;46.02
46199;BME280;31928;52.104;10.030;2024-01-11T02:13:45;102182.03;;;-3.53;46.03
46199;BME280;31928;52.104;10.030;2024-01-11T02:16:13;102182.03;;;-3.53;46.01
46199;BME280;31928;52.104;10.030;2024-01-11T02:18:39;102192.53;;;-3.53;46.02
46199;BME280;31928;52.104;10.030;2024-01-11T02:21:06;102209.09;;;-3.52;46.34
46199;BME280;31928;52.104;10.030;2024-01-11T02:23:36;102208.25;;;-3.53;45.89
46199;BME280;31928;52.104;10.030;2024-01-11T02:26:07;102205.63;;;-3.53;45.97
46199;BME280;31928;52.104;10.030;2024-01-11T02:28:33;102210.88;;;-3.53;46.30
46199;BME280;31928;52.104;10.030;2024-01-11T02:31:00;102201.31;;;-3.54;46.22
46199;BME280;31928;52.104;10.030;2024-01-11T02:33:26;102196.97;;;-3.55;46.35
46199;BME280;31928;52.104;10.030;2024-01-11T02:35:53;102203.16;;;-3.56;45.98
46199;BME280;31928;52.104;10.030;2024-01-11T02:38:20;102194.44;;;-3.56;46.24
46199;BME280;31928;52.104;10.030;2024-01-11T02:40:46;102191.03;;;-3.58;46.34
46199;BME280;31928;52.104;10.030;2024-01-11T02:43:14;102197.16;;;-3.58;46.22
46199;BME280;31928;52.104;10.030;2024-01-11T02:45:41;102193.66;;;-3.58;46.30
46199;BME280;31928;52.104;10.030;2024-01-11T02:48:07;102203.31;;;-3.58;46.10
46199;BME280;31928;52.104;10.030;2024-01-11T02:50:34;102175.41;;;-3.59;46.11
46199;BME280;31928;52.104;10.030;2024-01-11T02:53:00;102174.66;;;-3.61;46.33
46199;BME280;31928;52.104;10.030;2024-01-11T02:55:27;102177.28;;;-3.61;46.17
46199;BME280;31928;52.104;10.030;2024-01-11T02:57:54;102180.81;;;-3.62;46.10
46199;BME280;31928;52.104;10.030;2024-01-11T03:00:20;102172.19;;;-3.64;46.20
46199;BME280;31928;52.104;10.030;2024-01-11T03:02:47;102172.19;;;-3.64;46.31
46199;BME280;31928;52.104;10.030;2024-01-11T03:05:13;102174.88;;;-3.66;46.39
46199;BME280;31928;52.104;10.030;2024-01-11T03:07:40;102160.94;;;-3.66;46.45
46199;BME280;31928;52.104;10.030;2024-01-11T03:10:07;102164.47;;;-3.67;46.36
46199;BME280;31928;52.104;10.030;2024-01-11T03:12:33;102174.13;;;-3.68;46.39
46199;BME280;31928;52.104;10.030;2024-01-11T03:15:00;102161.88;;;-3.67;46.33
46199;BME280;31928;52.104;10.030;2024-01-11T03:17:26;102150.56;;;-3.68;46.17
46199;BME280;31928;52.104;10.030;2024-01-11T03:19:53;102159.25;;;-3.67;46.55
46199;BME280;31928;52.104;10.030;2024-01-11T03:22:19;102149.69;;;-3.68;46.56
46199;BME280;31928;52.104;10.030;2024-01-11T03:24:46;102160.16;;;-3.68;46.17
46199;BME280;31928;52.104;10.030;2024-01-11T03:27:12;102166.28;;;-3.68;46.42
46199;BME280;31928;52.104;10.030;2024-01-11T03:29:39;102167.09;;;-3.67;46.19
46199;BME280;31928;52.104;10.030;2024-01-11T03:32:06;102160.16;;;-3.68;46.39
46199;BME280;31928;52.104;10.030;2024-01-11T03:34:33;102159.34;;;-3.69;46.38
46199;BME280;31928;52.104;10.030;2024-01-11T03:36:59;102154.00;;;-3.67;46.32
46199;BME280;31928;52.104;10.030;2024-01-11T03:39:26;102169.72;;;-3.67;46.14
46199;BME280;31928;52.104;10.030;2024-01-11T03:41:52;102173.25;;;-3.68;46.49
46199;BME280;31928;52.104;10.030;2024-01-11T03:44:19;102169.72;;;-3.67;46.43
46199;BME280;31928;52.104;10.030;2024-01-11T03:46:45;102166.28;;;-3.68;46.60
46199;BME280;31928;52.104;10.030;2024-01-11T03:49:12;102166.28;;;-3.68;46.16
46199;BME280;31928;52.104;10.030;2024-01-11T03:51:39;102163.69;;;-3.69;46.60
46199;BME280;31928;52.104;10.030;2024-01-11T03:54:06;102175.97;;;-3.70;46.55
46199;BME280;31928;52.104;10.030;2024-01-11T03:56:32;102167.28;;;-3.70;46.57
46199;BME280;31928;52.104;10.030;2024-01-11T03:58:59;102159.47;;;-3.72;46.59
46199;BME280;31928;52.104;10.030;2024-01-11T04:01:25;102167.31;;;-3.72;46.33
46199;BME280;31928;52.104;10.030;2024-01-11T04:03:52;102173.50;;;-3.73;46.66
46199;BME280;31928;52.104;10.030;2024-01-11T04:06:22;102182.22;;;-3.72;46.34
46199;BME280;31928;52.104;10.030;2024-01-11T04:08:49;102191.00;;;-3.73;46.50
46199;BME280;31928;52.104;10.030;2024-01-11T04:11:16;102200.63;;;-3.74;46.25
46199;BME280;31928;52.104;10.030;2024-01-11T04:13:43;102204.94;;;-3.73;46.59
46199;BME280;31928;52.104;10.030;2024-01-11T04:16:10;102206.72;;;-3.73;46.67
46199;BME280;31928;52.104;10.030;2024-01-11T04:18:36;102198.84;;;-3.73;46.33
46199;BME280;31928;52.104;10.030;2024-01-11T04:21:03;102204.09;;;-3.73;46.34
46199;BME280;31928;52.104;10.030;2024-01-11T04:23:30;102201.56;;;-3.75;46.41
46199;BME280;31928;52.104;10.030;2024-01-11T04:25:56;102185.00;;;-3.75;46.38
46199;BME280;31928;52.104;10.030;2024-01-11T04:28:23;102187.63;;;-3.75;46.59
46199;BME280;31928;52.104;10.030;2024-01-11T04:30:50;102181.59;;;-3.77;46.40
46199;BME280;31928;52.104;10.030;2024-01-11T04:33:16;102175.53;;;-3.78;46.47
46199;BME280;31928;52.104;10.030;2024-01-11T04:35:43;102177.28;;;-3.78;46.39
46199;BME280;31928;52.104;10.030;2024-01-11T04:38:10;102167.75;;;-3.79;46.65
46199;BME280;31928;52.104;10.030;2024-01-11T04:40:37;102161.63;;;-3.80;46.71
46199;BME280;31928;52.104;10.030;2024-01-11T04:43:03;102159.03;;;-3.80;46.54
46199;BME280;31928;52.104;10.030;2024-01-11T04:45:30;102152.94;;;-3.80;46.58
46199;BME280;31928;52.104;10.030;2024-01-11T04:47:56;102140.69;;;-3.80;46.75
46199;BME280;31928;52.104;10.030;2024-01-11T04:50:26;102131.16;;;-3.81;46.55
46199;BME280;31928;52.104;10.030;2024-01-11T04:52:52;102127.66;;;-3.81;46.70
46199;BME280;31928;52.104;10.030;2024-01-11T04:55:19;102119.91;;;-3.83;46.81
46199;BME280;31928;52.104;10.030;2024-01-11T04:57:46;102138.16;;;-3.81;46.76
46199;BME280;31928;52.104;10.030;2024-01-11T05:00:12;102161.72;;;-3.81;46.61
46199;BME280;31928;52.104;10.030;2024-01-11T05:02:39;102165.22;;;-3.81;46.77
46199;BME280;31928;52.104;10.030;2024-01-11T05:05:06;102161.81;;;-3.83;46.52
46199;BME280;31928;52.104;10.030;2024-01-11T05:07:32;102171.44;;;-3.83;46.98
46199;BME280;31928;52.104;10.030;2024-01-11T05:10:01;102172.28;;;-3.83;46.81
46199;BME280;31928;52.104;10.030;2024-01-11T05:12:27;102176.69;;;-3.83;46.86
46199;BME280;31928;52.104;10.030;2024-01-11T05:14:54;102180.16;;;-3.83;47.11
46199;BME280;31928;52.104;10.030;2024-01-11T05:17:20;102194.06;;;-3.82;46.91
46199;BME280;31928;52.104;10.030;2024-01-11T05:19:47;102196.69;;;-3.82;47.00
46199;BME280;31928;52.104;10.030;2024-01-11T05:22:14;102199.31;;;-3.82;47.24
46199;BME280;31928;52.104;10.030;2024-01-11T05:24:41;102201.88;;;-3.81;47.06
46199;BME280;31928;52.104;10.030;2024-01-11T05:27:07;102195.78;;;-3.81;47.02
46199;BME280;31928;52.104;10.030;2024-01-11T05:29:34;102203.56;;;-3.80;46.98
46199;BME280;31928;52.104;10.030;2024-01-11T05:32:00;102209.50;;;-3.76;47.75
46199;BME280;31928;52.104;10.030;2024-01-11T05:34:27;102216.16;;;-3.54;50.06
46199;BME280;31928;52.104;10.030;2024-01-11T05:36:54;102229.66;;;-3.12;52.28
46199;BME280;31928;52.104;10.030;2024-01-11T05:39:21;102221.16;;;-2.54;54.13
46199;BME280;31928;52.104;10.030;2024-01-11T05:41:48;102225.19;;;-1.89;55.35
46199;BME280;31928;52.104;10.030;2024-01-11T05:44:14;102224.38;;;-1.19;56.13
46199;BME280;31928;52.104;10.030;2024-01-11T05:46:41;102219.78;;;-0.47;57.22
46199;BME280;31928;52.104;10.030;2024-01-11T05:49:07;102216.84;;;0.22;56.53
46199;BME280;31928;52.104;10.030;2024-01-11T05:51:34;102203.59;;;0.86;56.49
46199;BME280;31928;52.104;10.030;2024-01-11T05:54:01;102208.75;;;1.48;56.67
46199;BME280;31928;52.104;10.030;2024-01-11T05:56:27;102180.81;;;2.03;55.62
46199;BME280;31928;52.104;10.030;2024-01-11T05:58:54;102169.63;;;2.55;54.90
46199;BME280;31928;52.104;10.030;2024-01-11T06:01:21;102175.66;;;3.01;54.26
46199;BME280;31928;52.104;10.030;2024-01-11T06:03:48;102181.03;;;3.43;52.89
46199;BME280;31928;52.104;10.030;2024-01-11T06:06:14;102179.41;;;3.73;51.82
46199;BME280;31928;52.104;10.030;2024-01-11T06:08:41;102175.94;;;3.93;50.62
46199;BME280;31928;52.104;10.030;2024-01-11T06:11:10;102171.56;;;4.03;49.82
46199;BME280;31928;52.104;10.030;2024-01-11T06:13:36;102174.81;;;4.07;48.77
46199;BME280;31928;52.104;10.030;2024-01-11T06:16:03;102174.47;;;4.00;48.21
46199;BME280;31928;52.104;10.030;2024-01-11T06:18:30;102176.06;;;3.92;47.65
46199;BME280;31928;52.104;10.030;2024-01-11T06:20:57;102155.13;;;3.78;46.92
46199;BME280;31928;52.104;10.030;2024-01-11T06:23:24;102143.38;;;3.60;46.31
46199;BME280;31928;52.104;10.030;2024-01-11T06:25:51;102152.50;;;3.36;45.87
46199;BME280;31928;52.104;10.030;2024-01-11T06:28:17;102168.41;;;3.14;45.50
46199;BME280;31928;52.104;10.030;2024-01-11T06:30:44;102166.16;;;2.88;45.25
46199;BME280;31928;52.104;10.030;2024-01-11T06:33:10;102164.72;;;2.62;45.12
46199;BME280;31928;52.104;10.030;2024-01-11T06:35:37;102157.31;;;2.33;44.96
46199;BME280;31928;52.104;10.030;2024-01-11T06:38:03;102139.94;;;2.07;45.15
46199;BME280;31928;52.104;10.030;2024-01-11T06:40:30;102153.53;;;1.79;44.98
46199;BME280;31928;52.104;10.030;2024-01-11T06:42:57;102157.25;;;1.53;44.86
46199;BME280;31928;52.104;10.030;2024-01-11T06:45:24;102163.34;;;1.30;44.70
46199;BME280;31928;52.104;10.030;2024-01-11T06:47:50;102174.84;;;1.06;45.04
46199;BME280;31928;52.104;10.030;2024-01-11T06:50:17;102167.59;;;0.85;44.96
46199;BME280;31928;52.104;10.030;2024-01-11T06:52:44;102180.38;;;0.66;45.16
46199;BME280;31928;52.104;10.030;2024-01-11T06:55:10;102177.41;;;0.46;44.88
46199;BME280;31928;52.104;10.030;2024-01-11T06:57:37;102165.38;;;0.29;45.28
46199;BME280;31928;52.104;10.030;2024-01-11T07:00:04;102184.13;;;0.12;45.31
46199;BME280;31928;52.104;10.030;2024-01-11T07:02:31;102166.72;;;-0.02;45.26
46199;BME280;31928;52.104;10.030;2024-01-11T07:04:58;102170.38;;;-0.17;45.50
46199;BME280;31928;52.104;10.030;2024-01-11T07:07:25;102170.41;;;-0.31;45.30
46199;BME280;31928;52.104;10.030;2024-01-11T07:09:52;102187.13;;;-0.45;45.36
46199;BME280;31928;52.104;10.030;2024-01-11T07:12:22;102177.38;;;-0.57;45.54
46199;BME280;31928;52.104;10.030;2024-01-11T07:14:48;102186.81;;;-0.66;45.35
46199;BME280;31928;52.104;10.030;2024-01-11T07:17:15;102195.41;;;-0.77;45.57
46199;BME280;31928;52.104;10.030;2024-01-11T07:19:42;102180.91;;;-0.84;45.49
46199;BME280;31928;52.104;10.030;2024-01-11T07:22:08;102168.34;;;-0.93;45.53
46199;BME280;31928;52.104;10.030;2024-01-11T07:24:35;102174.94;;;-1.00;45.72
46199;BME280;31928;52.104;10.030;2024-01-11T07:27:05;102180.69;;;-1.07;45.49
46199;BME280;31928;52.104;10.030;2024-01-11T07:29:32;102173.25;;;-1.15;45.79
46199;BME280;31928;52.104;10.030;2024-01-11T07:31:59;102182.47;;;-1.21;45.57
46199;BME280;31928;52.104;10.030;2024-01-11T07:34:27;102178.44;;;-1.27;45.70
46199;BME280;31928;52.104;10.030;2024-01-11T07:36:53;102191.03;;;-1.32;45.90
46199;BME280;31928;52.104;10.030;2024-01-11T07:39:20;102184.34;;;-1.37;45.98
46199;BME280;31928;52.104;10.030;2024-01-11T07:41:48;102195.25;;;-1.43;45.83
46199;BME280;31928;52.104;10.030;2024-01-11T07:44:15;102206.91;;;-1.47;46.16
46199;BME280;31928;52.104;10.030;2024-01-11T07:46:43;102215.91;;;-1.51;45.87
46199;BME280;31928;52.104;10.030;2024-01-11T07:49:19;102221.53;;;-1.57;46.21
46199;BME280;31928;52.104;10.030;2024-01-11T07:51:47;102226.19;;;-1.62;46.26
46199;BME280;31928;52.104;10.030;2024-01-11T07:54:14;102249.19;;;-1.66;46.15
46199;BME280;31928;52.104;10.030;2024-01-11T07:56:41;102241.59;;;-1.70;46.52
46199;BME280;31928;52.104;10.030;2024-01-11T07:59:08;102247.88;;;-1.73;46.59
46199;BME280;31928;52.104;10.030;2024-01-11T08:01:40;102248.81;;;-1.74;46.61
46199;BME280;31928;52.104;10.030;2024-01-11T08:04:07;102244.47;;;-1.75;46.64
46199;BME280;31928;52.104;10.030;2024-01-11T08:06:33;102249.66;;;-1.73;46.84
46199;BME280;31928;52.104;10.030;2024-01-11T08:09:00;102264.31;;;-1.69;46.83
46199;BME280;31928;52.104;10.030;2024-01-11T08:11:27;102259.91;;;-1.69;46.89
46199;BME280;31928;52.104;10.030;2024-01-11T08:13:57;102253.72;;;-1.68;47.09
46199;BME280;31928;52.104;10.030;2024-01-11T08:16:23;102261.41;;;-1.65;47.11
46199;BME280;31928;52.104;10.030;2024-01-11T08:18:50;102249.03;;;-1.63;47.11
46199;BME280;31928;52.104;10.030;2024-01-11T08:21:17;102245.38;;;-1.60;47.20
46199;BME280;31928;52.104;10.030;2024-01-11T08:23:43;102236.53;;;-1.59;47.00
46199;BME280;31928;52.104;10.030;2024-01-11T08:26:12;102238.31;;;-1.60;47.30
46199;BME280;31928;52.104;10.030;2024-01-11T08:28:41;102244.25;;;-1.56;47.27
46199;BME280;31928;52.104;10.030;2024-01-11T08:31:07;102234.56;;;-1.56;47.58
46199;BME280;31928;52.104;10.030;2024-01-11T08:33:35;102236.94;;;-1.51;47.60
46199;BME280;31928;52.104;10.030;2024-01-11T08:36:05;102237.50;;;-1.46;48.02
46199;BME280;31928;52.104;10.030;2024-01-11T08:38:32;102243.16;;;-1.38;48.05
46199;BME280;31928;52.104;10.030;2024-01-11T08:40:59;102232.09;;;-1.29;48.08
46199;BME280;31928;52.104;10.030;2024-01-11T08:43:26;102229.63;;;-1.19;48.22
46199;BME280;31928;52.104;10.030;2024-01-11T08:45:53;102230.78;;;-1.09;48.28
46199;BME280;31928;52.104;10.030;2024-01-11T08:48:20;102227.56;;;-1.00;48.17
46199;BME280;31928;52.104;10.030;2024-01-11T08:50:48;102231.34;;;-0.90;48.37
46199;BME280;31928;52.104;10.030;2024-01-11T08:53:14;102233.19;;;-0.78;48.46
46199;BME280;31928;52.104;10.030;2024-01-11T08:55:42;102217.38;;;-0.64;48.60
46199;BME280;31928;52.104;10.030;2024-01-11T08:58:12;102206.06;;;-0.52;48.73
46199;BME280;31928;52.104;10.030;2024-01-11T09:00:38;102215.59;;;-0.37;48.73
46199;BME280;31928;52.104;10.030;2024-01-11T09:03:05;102226.84;;;-0.21;48.89
46199;BME280;31928;52.104;10.030;2024-01-11T09:05:32;102227.53;;;-0.05;48.91
46199;BME280;31928;52.104;10.030;2024-01-11T09:07:58;102235.38;;;0.08;48.65
46199;BME280;31928;52.104;10.030;2024-01-11T09:10:25;102233.41;;;0.24;48.93
46199;BME280;31928;52.104;10.030;2024-01-11T09:12:52;102228.91;;;0.39;49.14
46199;BME280;31928;52.104;10.030;2024-01-11T09:15:18;102226.81;;;0.56;49.15
46199;BME280;31928;52.104;10.030;2024-01-11T09:17:45;102226.41;;;0.74;49.22
46199;BME280;31928;52.104;10.030;2024-01-11T09:20:12;102217.13;;;0.94;49.16
46199;BME280;31928;52.104;10.030;2024-01-11T09:22:40;102224.47;;;1.14;48.71
46199;BME280;31928;52.104;10.030;2024-01-11T09:25:07;102221.47;;;1.30;48.95
46199;BME280;31928;52.104;10.030;2024-01-11T09:27:35;102214.88;;;1.48;48.79
46199;BME280;31928;52.104;10.030;2024-01-11T09:30:01;102220.75;;;1.64;48.62
46199;BME280;31928;52.104;10.030;2024-01-11T09:32:28;102209.88;;;1.79;48.16
46199;BME280;31928;52.104;10.030;2024-01-11T09:34:57;102215.88;;;1.94;47.96
46199;BME280;31928;52.104;10.030;2024-01-11T09:37:24;102222.66;;;2.09;47.86
46199;BME280;31928;52.104;10.030;2024-01-11T09:39:51;102230.41;;;2.23;47.80
46199;BME280;31928;52.104;10.030;2024-01-11T09:42:17;102237.31;;;2.36;47.95
46199;BME280;31928;52.104;10.030;2024-01-11T09:44:44;102243.25;;;2.50;47.77
46199;BME280;31928;52.104;10.030;2024-01-11T09:47:11;102243.06;;;2.64;47.68
46199;BME280;31928;52.104;10.030;2024-01-11T09:49:42;102245.47;;;2.78;47.60
46199;BME280;31928;52.104;10.030;2024-01-11T09:52:09;102241.03;;;2.90;47.41
46199;BME280;31928;52.104;10.030;2024-01-11T09:54:39;102243.81;;;2.99;47.49
46199;BME280;31928;52.104;10.030;2024-01-11T09:57:06;102234.19;;;3.09;47.30
46199;BME280;31928;52.104;10.030;2024-01-11T09:59:34;102242.59;;;3.14;46.98
46199;BME280;31928;52.104;10.030;2024-01-11T10:02:02;102232.38;;;3.20;47.00
46199;BME280;31928;52.104;10.030;2024-01-11T10:04:29;102231.91;;;3.26;47.09
46199;BME280;31928;52.104;10.030;2024-01-11T10:06:56;102224.44;;;3.31;46.91
46199;BME280;31928;52.104;10.030;2024-01-11T10:09:22;102218.63;;;3.37;46.94
46199;BME280;31928;52.104;10.030;2024-01-11T10:11:49;102210.06;;;3.45;46.49
46199;BME280;31928;52.104;10.030;2024-01-11T10:14:17;102211.50;;;3.49;46.61
46199;BME280;31928;52.104;10.030;2024-01-11T10:16:44;102210.06;;;3.56;46.65
46199;BME280;31928;52.104;10.030;2024-01-11T10:19:10;102221.16;;;3.60;46.63
46199;BME280;31928;52.104;10.030;2024-01-11T10:21:40;102209.06;;;3.67;46.79
46199;BME280;31928;52.104;10.030;2024-01-11T10:24:07;102209.28;;;3.75;46.53
46199;BME280;31928;52.104;10.030;2024-01-11T10:26:33;102193.69;;;3.82;46.62
46199;BME280;31928;52.104;10.030;2024-01-11T10:29:00;102180.09;;;3.86;46.82
46199;BME280;31928;52.104;10.030;2024-01-11T10:31:29;102190.16;;;3.92;46.55
46199;BME280;31928;52.104;10.030;2024-01-11T10:33:57;102186.06;;;3.99;46.96
46199;BME280;31928;52.104;10.030;2024-01-11T10:36:24;102193.25;;;4.08;46.70
46199;BME280;31928;52.104;10.030;2024-01-11T10:38:50;102200.44;;;4.17;46.98
46199;BME280;31928;52.104;10.030;2024-01-11T10:41:19;102201.47;;;4.25;46.65
46199;BME280;31928;52.104;10.030;2024-01-11T10:43:46;102196.25;;;4.35;46.91
46199;BME280;31928;52.104;10.030;2024-01-11T10:46:14;102208.75;;;4.44;46.49
46199;BME280;31928;52.104;10.030;2024-01-11T10:48:43;102204.59;;;4.51;46.35
46199;BME280;31928;52.104;10.030;2024-01-11T10:51:12;102198.34;;;4.52;46.30
46199;BME280;31928;52.104;10.030;2024-01-11T10:53:42;102201.69;;;4.54;46.12
46199;BME280;31928;52.104;10.030;2024-01-11T10:56:10;102212.31;;;4.54;45.98
46199;BME280;31928;52.104;10.030;2024-01-11T10:58:40;102207.41;;;4.49;45.96
46199;BME280;31928;52.104;10.030;2024-01-11T11:01:11;102212.97;;;4.46;45.66
46199;BME280;31928;52.104;10.030;2024-01-11T11:03:39;102210.69;;;4.42;45.84
46199;BME280;31928;52.104;10.030;2024-01-11T11:06:09;102206.75;;;4.36;45.40
46199;BME280;31928;52.104;10.030;2024-01-11T11:08:37;102210.88;;;4.29;45.47
46199;BME280;31928;52.104;10.030;2024-01-11T11:11:04;102210.53;;;4.23;45.66
46199;BME280;31928;52.104;10.030;2024-01-11T11:13:33;102205.03;;;4.15;45.46
46199;BME280;31928;52.104;10.030;2024-01-11T11:16:01;102199.38;;;4.09;45.56
46199;BME280;31928;52.104;10.030;2024-01-11T11:18:30;102198.22;;;4.02;45.79
46199;BME280;31928;52.104;10.030;2024-01-11T11:20:58;102198.84;;;3.94;45.73
46199;BME280;31928;52.104;10.030;2024-01-11T11:23:24;102202.00;;;3.88;45.64
46199;BME280;31928;52.104;10.030;2024-01-11T11:25:51;102206.97;;;3.82;45.63
46199;BME280;31928;52.104;10.030;2024-01-11T11:28:20;102219.06;;;3.75;45.62
46199;BME280;31928;52.104;10.030;2024-01-11T11:30:51;102208.22;;;3.67;45.63
46199;BME280;31928;52.104;10.030;2024-01-11T11:33:19;102206.06;;;3.61;46.02
46199;BME280;31928;52.104;10.030;2024-01-11T11:35:47;102203.81;;;3.57;46.01
46199;BME280;31928;52.104;10.030;2024-01-11T11:38:18;102203.19;;;3.53;46.17
46199;BME280;31928;52.104;10.030;2024-01-11T11:40:46;102197.28;;;3.50;46.18
46199;BME280;31928;52.104;10.030;2024-01-11T11:43:12;102197.53;;;3.47;46.25
46199;BME280;31928;52.104;10.030;2024-01-11T11:45:40;102187.16;;;3.44;46.26
46199;BME280;31928;52.104;10.030;2024-01-11T11:51:01;102178.03;;;3.37;46.26
46199;BME280;31928;52.104;10.030;2024-01-11T11:53:30;102177.34;;;3.35;46.61
46199;BME280;31928;52.104;10.030;2024-01-11T11:55:59;102159.75;;;3.34;46.39
46199;BME280;31928;52.104;10.030;2024-01-11T11:58:27;102154.66;;;3.31;46.50
46199;BME280;31928;52.104;10.030;2024-01-11T12:00:54;102153.97;;;3.29;46.86
46199;BME280;31928;52.104;10.030;2024-01-11T12:03:23;102145.41;;;3.25;46.55
46199;BME280;31928;52.104;10.030;2024-01-11T12:05:55;102136.63;;;3.25;46.94
46199;BME280;31928;52.104;10.030;2024-01-11T12:08:21;102130.59;;;3.23;46.93
46199;BME280;31928;52.104;10.030;2024-01-11T12:10:48;102142.88;;;3.24;47.05
46199;BME280;31928;52.104;10.030;2024-01-11T12:13:15;102153.47;;;3.24;47.35
46199;BME280;31928;52.104;10.030;2024-01-11T12:15:41;102134.94;;;3.24;47.21
46199;BME280;31928;52.104;10.030;2024-01-11T12:18:08;102125.78;;;3.28;47.38
46199;BME280;31928;52.104;10.030;2024-01-11T12:20:35;102109.59;;;3.31;47.63
46199;BME280;31928;52.104;10.030;2024-01-11T12:23:02;102109.25;;;3.35;47.56
46199;BME280;31928;52.104;10.030;2024-01-11T12:25:29;102109.00;;;3.38;48.00
46199;BME280;31928;52.104;10.030;2024-01-11T12:27:55;102107.22;;;3.39;47.89
46199;BME280;31928;52.104;10.030;2024-01-11T12:30:22;102101.78;;;3.40;47.76
46199;BME280;31928;52.104;10.030;2024-01-11T12:32:50;102098.84;;;3.43;47.71
46199;BME280;31928;52.104;10.030;2024-01-11T12:35:17;102098.03;;;3.43;47.74
46199;BME280;31928;52.104;10.030;2024-01-11T12:37:58;102094.38;;;3.44;47.85
46199;BME280;31928;52.104;10.030;2024-01-11T12:40:26;102100.41;;;3.46;48.23
46199;BME280;31928;52.104;10.030;2024-01-11T12:42:56;102096.81;;;3.47;48.33
46199;BME280;31928;52.104;10.030;2024-01-11T12:45:23;102116.06;;;3.49;48.11